Time;durP1;ratioP1;P1;durP2;ratioP2;P2;SDS_P1;SDS_P2;PMS_P1;PMS_P2;Temp;Humidity;BMP_temperature;BMP_pressure;BME280_temperature;BME280_humidity;BME280_pressure;Samples;Min_cycle;Max_cycle;Signal;HPM_P1;HPM_P2
2023/05/15 00:02:03;;;;;;;34.78;17.52;;;;;;;12.74;100.00;98409.44;5030422;28;20566;-62
2023/05/15 00:04:29;;;;;;;29.10;17.42;;;;;;;12.84;100.00;98433.75;5030358;28;20190;-62
2023/05/15 00:06:54;;;;;;;32.90;18.20;;;;;;;12.81;100.00;98446.97;5010421;28;20219;-62
2023/05/15 00:09:20;;;;;;;32.75;17.42;;;;;;;12.42;100.00;98393.72;5040857;28;20221;-62
2023/05/15 00:11:45;;;;;;;35.20;19.42;;;;;;;12.45;100.00;98377.09;5050163;28;20611;-62
2023/05/15 00:14:11;;;;;;;34.10;17.70;;;;;;;12.08;100.00;98327.19;5050117;28;20229;-62
2023/05/15 00:16:36;;;;;;;34.70;18.52;;;;;;;12.11;100.00;98321.78;5050314;28;20190;-62
2023/05/15 00:19:01;;;;;;;28.80;16.98;;;;;;;12.54;100.00;98402.38;5050096;28;20231;-62
2023/05/15 00:21:27;;;;;;;31.25;17.45;;;;;;;12.06;100.00;98323.88;5049995;28;20672;-62
2023/05/15 00:23:52;;;;;;;35.65;19.38;;;;;;;12.62;100.00;98400.84;5049992;28;20185;-62
2023/05/15 00:26:18;;;;;;;31.35;18.30;;;;;;;12.51;100.00;98387.00;5049980;28;20267;-62
2023/05/15 00:28:44;;;;;;;40.63;18.35;;;;;;;11.87;100.00;98302.91;5049889;28;20193;-62
2023/05/15 00:31:11;;;;;;;37.00;19.17;;;;;;;12.06;100.00;98359.38;5049941;28;20182;-62
2023/05/15 00:33:37;;;;;;;37.15;18.67;;;;;;;12.02;100.00;98337.22;5049718;28;20263;-62
2023/05/15 00:36:03;;;;;;;35.33;18.08;;;;;;;11.88;100.00;98319.25;5049829;28;20209;-62
2023/05/15 00:38:28;;;;;;;30.23;17.73;;;;;;;12.24;100.00;98391.69;5024620;28;20591;-62
2023/05/15 00:40:55;;;;;;;27.10;17.02;;;;;;;12.06;100.00;98349.81;5029838;28;20190;-62
2023/05/15 00:43:21;;;;;;;23.02;15.32;;;;;;;11.79;100.00;98304.41;5030067;28;20205;-62
2023/05/15 00:45:47;;;;;;;23.90;15.48;;;;;;;12.28;100.00;98374.97;5029828;28;20594;-62
2023/05/15 00:48:13;;;;;;;22.50;14.02;;;;;;;12.09;100.00;98343.59;5049569;28;20189;-62
2023/05/15 00:50:40;;;;;;;19.30;13.00;;;;;;;12.29;100.00;98386.97;5049577;28;20196;-62
2023/05/15 00:53:06;;;;;;;18.38;13.23;;;;;;;12.00;100.00;98328.72;5049554;28;20723;-62
2023/05/15 00:55:32;;;;;;;17.58;12.68;;;;;;;12.11;100.00;98352.06;5049620;28;20185;-62
2023/05/15 00:57:59;;;;;;;16.88;11.95;;;;;;;11.80;100.00;98293.91;5049557;28;20210;-62
2023/05/15 01:00:26;;;;;;;16.50;12.52;;;;;;;11.73;100.00;98315.25;5049470;28;20251;-62
2023/05/15 01:02:53;;;;;;;21.15;11.80;;;;;;;11.88;100.00;98353.81;5049565;28;20228;-62
2023/05/15 01:05:18;;;;;;;19.48;12.55;;;;;;;11.62;100.00;98278.94;5049584;28;20774;-62
2023/05/15 01:07:54;;;;;;;20.98;12.77;;;;;;;12.12;100.00;98338.16;5049522;28;20193;-62
2023/05/15 01:10:20;;;;;;;17.23;11.43;;;;;;;12.00;100.00;98287.22;5066877;28;20322;-62
2023/05/15 01:12:46;;;;;;;18.20;11.88;;;;;;;11.85;100.00;98257.28;5069381;28;20264;-62
2023/05/15 01:15:12;;;;;;;19.88;12.25;;;;;;;11.97;100.00;98271.91;5049309;28;20744;-62
2023/05/15 01:17:37;;;;;;;12.88;10.48;;;;;;;12.43;100.00;98350.47;5049408;28;20182;-62
2023/05/15 01:20:08;;;;;;;14.38;11.30;;;;;;;12.07;100.00;98288.41;5049657;28;20217;-62
2023/05/15 01:22:36;;;;;;;15.68;11.30;;;;;;;12.46;100.00;98358.00;5051552;28;20253;-62
2023/05/15 01:25:16;;;;;;;13.68;10.77;;;;;;;12.05;100.00;98293.72;5053526;28;20562;-62
2023/05/15 01:27:46;;;;;;;13.50;10.43;;;;;;;12.13;100.00;98287.97;5053249;28;20269;-63
2023/05/15 01:30:22;;;;;;;16.65;11.40;;;;;;;11.77;100.00;98254.44;5053250;28;20189;-62
2023/05/15 01:33:25;;;;;;;13.10;10.77;;;;;;;12.40;100.00;98338.53;5053202;28;20169;-62
2023/05/15 01:36:20;;;;;;;13.13;9.57;;;;;;;12.16;100.00;98279.91;5053141;28;20197;-62
2023/05/15 01:38:55;;;;;;;13.73;9.20;;;;;;;11.85;100.00;98224.38;5053189;28;20162;-62
2023/05/15 01:41:42;;;;;;;11.95;9.55;;;;;;;12.19;100.00;98316.81;5052973;28;20219;-62
2023/05/15 01:44:15;;;;;;;12.02;9.80;;;;;;;11.92;100.00;98266.25;5052971;28;20162;-62
2023/05/15 01:46:49;;;;;;;10.80;9.57;;;;;;;11.94;100.00;98256.56;5054356;28;20276;-62
2023/05/15 01:49:18;;;;;;;12.07;9.35;;;;;;;11.76;100.00;98224.28;5055355;28;20193;-62
2023/05/15 01:51:46;;;;;;;11.05;9.25;;;;;;;12.17;100.00;98291.94;5055182;28;20185;-62
2023/05/15 01:54:14;;;;;;;12.23;9.70;;;;;;;12.15;100.00;98286.06;5055071;28;20189;-62
2023/05/15 01:56:43;;;;;;;13.60;9.35;;;;;;;12.04;100.00;98273.09;5054991;28;20247;-63
2023/05/15 01:59:11;;;;;;;11.93;10.13;;;;;;;12.22;100.00;98289.81;5054983;28;20255;-63
2023/05/15 02:01:38;;;;;;;12.07;9.55;;;;;;;12.05;100.00;98270.38;5055016;28;20189;-63
2023/05/15 02:04:04;;;;;;;11.95;9.65;;;;;;;12.00;100.00;98289.81;5055012;28;20632;-63
2023/05/15 02:06:31;;;;;;;11.20;8.85;;;;;;;11.96;100.00;98254.69;5054939;28;20185;-63
2023/05/15 02:08:57;;;;;;;12.45;10.00;;;;;;;12.12;100.00;98294.06;5054907;28;20253;-63
2023/05/15 02:11:22;;;;;;;10.80;9.70;;;;;;;12.01;100.00;98255.19;5054861;28;20178;-63
2023/05/15 02:13:49;;;;;;;12.77;9.57;;;;;;;12.11;100.00;98258.69;5054783;28;20197;-63
2023/05/15 02:16:14;;;;;;;10.93;9.82;;;;;;;12.02;100.00;98239.47;5054708;28;20177;-63
2023/05/15 02:18:40;;;;;;;13.15;9.65;;;;;;;12.20;100.00;98252.81;5054779;28;20181;-63
2023/05/15 02:21:05;;;;;;;14.80;10.10;;;;;;;12.31;100.00;98255.41;5054658;28;20177;-63
2023/05/15 02:23:31;;;;;;;13.55;10.00;;;;;;;12.07;100.00;98200.25;5054599;28;20178;-63
2023/05/15 02:26:25;;;;;;;13.68;9.63;;;;;;;12.37;100.00;98229.78;5054582;28;20178;-63
2023/05/15 02:29:20;;;;;;;11.48;9.50;;;;;;;12.54;100.00;98262.22;5054594;28;20548;-63
2023/05/15 02:32:06;;;;;;;14.32;10.07;;;;;;;12.58;100.00;98279.19;5051909;28;20610;-63
2023/05/15 02:35:02;;;;;;;12.30;9.65;;;;;;;12.67;100.00;98294.03;5051783;28;20210;-63
2023/05/15 02:37:31;;;;;;;13.77;9.75;;;;;;;12.66;100.00;98290.59;5051987;28;20186;-63
2023/05/15 02:39:58;;;;;;;11.93;10.13;;;;;;;12.39;100.00;98237.47;5051921;28;20692;-63
2023/05/15 02:42:26;;;;;;;11.75;9.93;;;;;;;12.60;100.00;98264.31;5051862;28;20197;-62
2023/05/15 02:44:54;;;;;;;12.57;10.60;;;;;;;12.07;100.00;98205.44;5051841;28;20213;-63
2023/05/15 02:47:22;;;;;;;14.85;11.30;;;;;;;12.02;100.00;98213.56;5051817;28;20668;-63
2023/05/15 02:49:48;;;;;;;16.77;11.43;;;;;;;12.37;100.00;98310.22;5051771;28;20185;-63
2023/05/15 02:52:13;;;;;;;14.57;10.65;;;;;;;12.45;100.00;98317.41;5051648;28;20591;-63
2023/05/15 02:54:39;;;;;;;14.57;10.95;;;;;;;12.46;100.00;98306.09;5051552;28;20643;-63
2023/05/15 02:57:06;;;;;;;21.48;11.75;;;;;;;12.11;100.00;98259.53;5051635;28;20571;-63
2023/05/15 02:59:32;;;;;;;15.57;11.35;;;;;;;12.17;100.00;98253.88;5011522;28;20294;-62
2023/05/15 03:01:58;;;;;;;17.13;12.13;;;;;;;12.23;100.00;98275.91;5012692;28;20282;-63
2023/05/15 03:04:23;;;;;;;16.92;11.60;;;;;;;12.28;100.00;98281.56;5031520;28;20190;-63
2023/05/15 03:06:48;;;;;;;17.70;12.15;;;;;;;11.90;100.00;98203.31;5031498;28;20645;-63
2023/05/15 03:09:15;;;;;;;15.00;12.23;;;;;;;12.05;100.00;98233.22;5031419;28;20187;-63
2023/05/15 03:11:40;;;;;;;17.27;12.60;;;;;;;12.30;100.00;98290.88;5031423;28;20183;-63
2023/05/15 03:14:06;;;;;;;17.23;11.82;;;;;;;12.03;100.00;98217.78;5031321;28;20329;-63
2023/05/15 03:16:31;;;;;;;16.52;11.90;;;;;;;12.11;100.00;98237.94;5031314;28;20683;-63
2023/05/15 03:18:57;;;;;;;17.27;12.10;;;;;;;12.16;100.00;98252.22;5031517;28;20186;-62
2023/05/15 03:21:22;;;;;;;15.98;11.80;;;;;;;11.95;100.00;98203.75;5031203;28;20263;-63
2023/05/15 03:23:47;;;;;;;17.08;11.60;;;;;;;12.17;100.00;98240.06;5031183;28;20300;-63
2023/05/15 03:26:13;;;;;;;17.80;11.65;;;;;;;12.31;100.00;98286.53;5031130;28;20681;-62
2023/05/15 03:28:39;;;;;;;18.27;12.23;;;;;;;11.89;100.00;98245.72;5031092;28;20217;-63
2023/05/15 03:31:06;;;;;;;15.80;11.52;;;;;;;11.74;100.00;98219.19;5041150;28;20194;-63
2023/05/15 03:33:32;;;;;;;18.25;11.88;;;;;;;11.83;100.00;98234.06;5053195;28;20675;-63
2023/05/15 03:35:57;;;;;;;14.90;11.73;;;;;;;11.94;100.00;98239.25;5053206;28;20180;-63
2023/05/15 03:38:22;;;;;;;17.13;11.43;;;;;;;11.84;100.00;98214.16;5053178;28;20224;-63
2023/05/15 03:40:48;;;;;;;17.63;11.85;;;;;;;12.26;100.00;98255.75;5030733;28;20193;-63
2023/05/15 03:43:13;;;;;;;16.98;11.98;;;;;;;12.03;100.00;98225.56;5030816;28;20280;-63
2023/05/15 03:45:38;;;;;;;14.48;11.13;;;;;;;12.01;100.00;98226.66;5030184;28;20237;-63
2023/05/15 03:48:04;;;;;;;14.88;11.60;;;;;;;12.12;100.00;98250.81;5030669;28;20247;-63
2023/05/15 03:50:30;;;;;;;16.65;12.70;;;;;;;11.70;100.00;98189.28;5030716;28;20201;-63
2023/05/15 03:52:55;;;;;;;16.80;12.75;;;;;;;11.91;100.00;98228.31;5030555;28;20217;-63
2023/05/15 03:55:21;;;;;;;18.98;13.10;;;;;;;11.99;100.00;98262.22;5030575;28;20182;-63
2023/05/15 03:57:46;;;;;;;19.48;12.68;;;;;;;12.07;100.00;98272.88;5030548;28;20178;-63
2023/05/15 04:00:12;;;;;;;19.60;12.00;;;;;;;11.80;100.00;98192.81;5030683;28;20206;-63
2023/05/15 04:02:39;;;;;;;16.38;12.65;;;;;;;12.35;100.00;98272.38;5030489;28;20189;-63
2023/05/15 04:05:05;;;;;;;16.75;11.82;;;;;;;11.99;100.00;98193.06;5030446;28;20351;-62
2023/05/15 04:07:32;;;;;;;15.23;11.98;;;;;;;12.25;100.00;98246.31;5030376;28;20257;-63
2023/05/15 04:10:00;;;;;;;15.88;12.77;;;;;;;12.09;100.00;98203.53;5010511;28;20588;-63
2023/05/15 04:12:31;;;;;;;17.90;11.88;;;;;;;12.48;100.00;98254.91;5040973;28;20182;-63
2023/05/15 04:15:22;;;;;;;16.20;11.43;;;;;;;12.74;100.00;98277.03;5050166;28;20213;-62
2023/05/15 04:17:49;;;;;;;17.92;12.15;;;;;;;12.54;100.00;98226.69;5050138;28;20255;-63
2023/05/15 04:20:18;;;;;;;17.40;11.57;;;;;;;12.79;100.00;98277.50;5050111;28;20190;-63
2023/05/15 04:22:44;;;;;;;13.88;11.93;;;;;;;12.66;100.00;98245.66;5050082;28;20185;-62
2023/05/15 04:25:12;;;;;;;11.75;10.55;;;;;;;12.71;100.00;98239.16;5049913;28;20198;-62
2023/05/15 04:27:38;;;;;;;11.90;9.52;;;;;;;12.99;100.00;98263.75;5050000;28;20677;-62
2023/05/15 04:30:04;;;;;;;11.65;9.65;;;;;;;12.64;100.00;98211.19;5049926;28;20197;-62
2023/05/15 04:32:32;;;;;;;14.68;9.38;;;;;;;12.98;100.00;98259.53;5049841;28;20214;-63
2023/05/15 04:35:01;;;;;;;11.98;10.30;;;;;;;12.65;100.00;98207.69;5049808;28;20209;-63
2023/05/15 04:37:27;;;;;;;12.15;10.00;;;;;;;12.62;100.00;98213.94;5049831;28;20258;-62
2023/05/15 04:39:52;;;;;;;11.80;9.55;;;;;;;13.10;100.00;98308.72;5049913;28;20182;-63
2023/05/15 04:42:18;;;;;;;12.65;9.48;;;;;;;13.01;100.00;98301.66;5051910;28;20224;-63
2023/05/15 04:44:43;;;;;;;14.88;10.45;;;;;;;12.72;100.00;98250.38;5052162;28;20243;-63
2023/05/15 04:47:10;;;;;;;11.45;10.27;;;;;;;13.15;100.00;98310.94;5052090;28;20708;-63
2023/05/15 04:49:35;;;;;;;12.77;9.55;;;;;;;13.16;100.00;98308.22;5052130;28;20247;-63
2023/05/15 04:52:01;;;;;;;11.80;9.70;;;;;;;13.13;100.00;98290.28;5029647;28;20696;-63
2023/05/15 04:54:26;;;;;;;11.05;9.30;;;;;;;12.98;100.00;98267.31;5029648;28;20287;-63
2023/05/15 04:56:51;;;;;;;11.07;9.73;;;;;;;12.85;100.00;98240.66;5030692;28;20220;-64
2023/05/15 04:59:17;;;;;;;14.15;9.63;;;;;;;13.04;100.00;98267.66;5033751;28;20236;-63
2023/05/15 05:01:44;;;;;;;10.55;9.55;;;;;;;13.13;100.00;98299.84;5033818;28;20276;-63
2023/05/15 05:04:09;;;;;;;10.43;9.27;;;;;;;12.65;100.00;98228.44;5013832;28;20199;-62
2023/05/15 05:06:35;;;;;;;17.30;10.20;;;;;;;13.22;100.00;98323.31;5013986;28;20693;-63
2023/05/15 05:09:00;;;;;;;10.40;9.40;;;;;;;13.12;100.00;98300.81;4974758;28;20200;-63
2023/05/15 05:11:25;;;;;;;12.15;8.95;;;;;;;13.26;100.00;98329.09;4975069;28;20648;-63
2023/05/15 05:13:51;;;;;;;11.65;9.13;;;;;;;13.07;100.00;98301.16;4974708;28;20219;-63
2023/05/15 05:16:16;;;;;;;10.10;9.10;;;;;;;12.70;100.00;98227.13;4994077;28;20271;-63
2023/05/15 05:18:42;;;;;;;16.42;10.00;;;;;;;12.83;100.00;98252.94;4994143;28;20250;-62
2023/05/15 05:21:07;;;;;;;10.40;8.98;;;;;;;12.86;100.00;98231.91;4936029;29;20221;-63
2023/05/15 05:23:32;;;;;;;9.55;8.55;;;;;;;12.91;100.00;98214.19;4936115;29;20650;-63
2023/05/15 05:25:59;;;;;;;12.95;9.43;;;;;;;13.31;100.00;98280.19;4936155;29;20190;-63
2023/05/15 05:28:24;;;;;;;10.88;9.77;;;;;;;13.17;100.00;98262.28;4937638;29;20261;-63
2023/05/15 05:30:50;;;;;;;14.13;8.90;;;;;;;13.62;100.00;98315.69;4955106;29;20189;-63
2023/05/15 05:33:16;;;;;;;10.25;9.05;;;;;;;13.71;100.00;98315.75;4955096;29;20205;-62
2023/05/15 05:35:43;;;;;;;14.27;9.50;;;;;;;13.49;100.00;98268.28;4968979;28;20667;-62
2023/05/15 05:38:08;;;;;;;12.55;9.80;;;;;;;13.53;100.00;98262.69;4974334;28;20715;-63
2023/05/15 05:40:34;;;;;;;13.20;9.10;;;;;;;13.67;100.00;98277.16;5018170;28;20269;-63
2023/05/15 05:43:00;;;;;;;10.38;9.27;;;;;;;13.30;100.00;98218.78;5033365;28;20190;-63
2023/05/15 05:45:26;;;;;;;12.60;8.50;;;;;;;13.79;100.00;98283.94;5033050;28;20266;-63
2023/05/15 05:47:52;;;;;;;10.00;8.77;;;;;;;14.02;100.00;98329.66;5032962;28;20302;-63
2023/05/15 05:50:17;;;;;;;9.55;8.45;;;;;;;13.69;100.00;98254.44;5032956;28;20309;-63
2023/05/15 05:52:43;;;;;;;9.52;8.52;;;;;;;13.88;100.00;98281.38;5074619;28;20180;-62
2023/05/15 05:55:09;;;;;;;13.57;8.80;;;;;;;14.00;100.00;98289.94;5055032;28;20608;-62
2023/05/15 05:57:34;;;;;;;11.43;8.63;;;;;;;13.75;100.00;98233.13;5054687;28;20182;-63
2023/05/15 06:00:00;;;;;;;9.90;8.07;;;;;;;14.17;100.00;98317.97;5055004;28;20273;-63
2023/05/15 06:02:27;;;;;;;9.73;8.57;;;;;;;14.20;100.00;98313.38;5054826;28;20264;-63
2023/05/15 06:04:52;;;;;;;9.82;7.68;;;;;;;14.10;100.00;98273.41;5054745;28;20224;-63
2023/05/15 06:07:18;;;;;;;9.27;7.78;;;;;;;14.24;100.00;98295.72;5054198;28;20185;-63
2023/05/15 06:09:44;;;;;;;11.23;7.95;;;;;;;14.05;100.00;98254.78;5054747;28;20242;-63
2023/05/15 06:12:10;;;;;;;10.50;8.20;;;;;;;13.92;100.00;98248.13;5054581;28;20188;-62
2023/05/15 06:14:35;;;;;;;10.45;8.30;;;;;;;14.52;100.00;98323.63;5053485;28;20194;-62
2023/05/15 06:17:01;;;;;;;8.63;7.50;;;;;;;14.69;100.00;98336.03;5054382;28;20219;-63
2023/05/15 06:19:26;;;;;;;10.82;8.60;;;;;;;14.70;100.00;98322.84;5054421;28;20174;-63
2023/05/15 06:21:52;;;;;;;14.95;9.25;;;;;;;14.41;100.00;98258.66;5051984;28;20198;-63
2023/05/15 06:24:17;;;;;;;10.82;8.77;;;;;;;14.90;100.00;98308.09;5052030;28;20585;-62
2023/05/15 06:26:43;;;;;;;11.77;9.50;;;;;;;14.87;100.00;98303.19;5051933;28;20193;-63
2023/05/15 06:29:09;;;;;;;18.80;10.82;;;;;;;15.18;100.00;98343.81;5051912;28;20235;-63
2023/05/15 06:31:34;;;;;;;16.05;11.55;;;;;;;14.85;100.00;98286.84;5051867;28;20273;-64
2023/05/15 06:33:59;;;;;;;14.43;12.57;;;;;;;14.83;100.00;98286.16;5051787;28;20324;-63
2023/05/15 06:36:25;;;;;;;18.15;13.60;;;;;;;14.99;100.00;98322.94;5051699;28;20181;-63
2023/05/15 06:38:50;;;;;;;16.88;14.40;;;;;;;14.57;100.00;98251.16;5051911;28;20178;-62
2023/05/15 06:41:16;;;;;;;20.13;15.38;;;;;;;14.40;100.00;98238.78;5051853;28;20265;-62
2023/05/15 06:43:41;;;;;;;15.35;13.68;;;;;;;14.67;100.00;98291.06;5051388;28;20184;-63
2023/05/15 06:46:06;;;;;;;18.58;14.07;;;;;;;14.31;100.00;98236.97;5050872;28;20225;-63
2023/05/15 06:48:32;;;;;;;18.45;14.60;;;;;;;14.21;100.00;98241.31;5051753;28;20189;-63
2023/05/15 06:50:57;;;;;;;20.30;15.88;;;;;;;14.49;100.00;98277.84;5051885;28;20629;-63
2023/05/15 06:53:23;;;;;;;19.88;16.42;;;;;;;14.61;100.00;98296.78;5051633;28;20197;-62
2023/05/15 06:55:48;;;;;;;19.48;16.80;;;;;;;14.29;100.00;98233.69;5050512;28;20588;-63
2023/05/15 06:58:16;;;;;;;22.88;17.27;;;;;;;14.77;100.00;98315.34;5051181;28;20220;-63
2023/05/15 07:00:42;;;;;;;22.55;18.10;;;;;;;14.55;100.00;98284.31;5053743;28;20178;-63
2023/05/15 07:03:07;;;;;;;23.63;18.27;;;;;;;14.26;100.00;98239.97;5053708;28;20203;-64
2023/05/15 07:05:33;;;;;;;24.25;18.23;;;;;;;14.67;100.00;98296.25;5053138;28;20174;-63
2023/05/15 07:07:58;;;;;;;25.08;18.80;;;;;;;14.75;100.00;98304.25;5053721;28;20602;-64
2023/05/15 07:10:24;;;;;;;21.60;17.65;;;;;;;14.45;100.00;98257.41;5053389;28;20213;-62
2023/05/15 07:12:49;;;;;;;21.52;16.20;;;;;;;14.23;100.00;98211.59;5053745;28;20178;-62
2023/05/15 07:15:16;;;;;;;31.08;18.60;;;;;;;14.45;100.00;98254.81;5053533;28;20220;-62
2023/05/15 07:17:42;;;;;;;27.08;19.85;;;;;;;14.41;100.00;98248.25;5053617;28;20174;-62
2023/05/15 07:20:07;;;;;;;22.52;19.30;;;;;;;14.64;100.00;98286.13;5052702;28;20186;-62
2023/05/15 07:22:33;;;;;;;22.40;18.73;;;;;;;14.67;100.00;98275.44;5031356;28;20190;-62
2023/05/15 07:24:58;;;;;;;23.85;19.15;;;;;;;14.31;100.00;98205.72;5031260;28;20202;-62
2023/05/15 07:27:25;;;;;;;22.52;18.92;;;;;;;14.82;100.00;98300.97;5031076;28;20189;-63
2023/05/15 07:29:51;;;;;;;28.42;19.83;;;;;;;14.41;100.00;98211.78;5031111;28;20178;-63
2023/05/15 07:32:17;;;;;;;23.98;18.98;;;;;;;14.87;100.00;98271.91;5031067;28;20692;-63
2023/05/15 07:34:42;;;;;;;29.08;18.08;;;;;;;14.97;100.00;98293.56;5030918;28;20206;-63
2023/05/15 07:37:08;;;;;;;24.35;18.55;;;;;;;15.05;100.00;98285.94;5030772;28;20221;-63
2023/05/15 07:39:34;;;;;;;21.50;16.27;;;;;;;14.41;100.00;98201.38;5030445;28;20178;-63
2023/05/15 07:41:59;;;;;;;21.27;15.80;;;;;;;14.93;100.00;98295.63;5029883;28;20183;-63
2023/05/15 07:44:25;;;;;;;24.83;15.88;;;;;;;14.56;100.00;98226.91;5030706;28;20225;-62
2023/05/15 07:46:50;;;;;;;20.67;17.10;;;;;;;14.29;100.00;98207.66;5030775;28;20268;-62
2023/05/15 07:49:15;;;;;;;21.33;18.30;;;;;;;14.62;100.00;98252.41;5030568;28;20217;-63
2023/05/15 07:51:41;;;;;;;22.20;16.65;;;;;;;14.68;100.00;98266.66;5030447;28;20552;-63
2023/05/15 07:54:07;;;;;;;23.30;18.17;;;;;;;14.45;100.00;98229.59;5059255;28;20405;-63
2023/05/15 07:56:32;;;;;;;26.35;21.60;;;;;;;14.39;100.00;98192.88;5070255;28;20181;-63
2023/05/15 07:58:57;;;;;;;25.05;20.25;;;;;;;14.85;100.00;98269.44;5069630;28;20213;-62
2023/05/15 08:01:23;;;;;;;20.88;18.63;;;;;;;14.57;100.00;98238.16;5068532;28;20184;-63
2023/05/15 08:03:48;;;;;;;24.10;17.83;;;;;;;14.55;100.00;98250.47;5070598;28;20189;-63
2023/05/15 08:06:14;;;;;;;22.75;17.65;;;;;;;14.31;100.00;98223.94;5070279;28;20268;-63
2023/05/15 08:08:40;;;;;;;21.30;17.77;;;;;;;14.33;100.00;98235.03;5070183;28;20192;-63
2023/05/15 08:11:05;;;;;;;22.45;18.40;;;;;;;14.55;100.00;98273.88;5070243;28;20594;-63
2023/05/15 08:13:31;;;;;;;25.38;18.42;;;;;;;14.76;100.00;98311.09;5070098;28;20217;-62
2023/05/15 08:15:56;;;;;;;23.05;18.13;;;;;;;14.52;100.00;98264.56;5070162;28;20597;-63
2023/05/15 08:18:21;;;;;;;25.50;20.45;;;;;;;14.40;100.00;98236.19;5070122;28;20184;-63
2023/05/15 08:20:47;;;;;;;28.00;20.00;;;;;;;14.93;100.00;98319.09;5070090;28;20666;-63
2023/05/15 08:23:12;;;;;;;23.10;20.17;;;;;;;14.83;100.00;98294.81;5070052;28;20183;-63
2023/05/15 08:25:38;;;;;;;24.90;20.20;;;;;;;14.86;100.00;98283.28;5057007;28;20189;-63
2023/05/15 08:28:03;;;;;;;28.17;21.73;;;;;;;15.01;100.00;98311.44;5052417;28;20257;-62
2023/05/15 08:30:29;;;;;;;26.90;20.63;;;;;;;14.69;100.00;98244.88;5052172;28;20176;-63
2023/05/15 08:32:54;;;;;;;30.85;22.10;;;;;;;14.74;100.00;98240.06;5052245;28;20572;-63
2023/05/15 08:35:19;;;;;;;27.38;20.42;;;;;;;15.14;100.00;98290.31;5052337;28;20201;-63
2023/05/15 08:37:45;;;;;;;27.13;21.45;;;;;;;15.05;100.00;98271.09;5052319;28;20178;-63
2023/05/15 08:40:11;;;;;;;27.25;20.30;;;;;;;15.15;100.00;98284.97;5052227;28;20618;-63
2023/05/15 08:42:54;;;;;;;28.00;20.73;;;;;;;14.95;100.00;98243.41;5052230;28;20241;-63
2023/05/15 08:45:20;;;;;;;25.30;20.35;;;;;;;15.00;100.00;98251.63;5052217;28;20585;-63
2023/05/15 08:47:45;;;;;;;27.63;20.60;;;;;;;15.13;100.00;98249.56;5052142;28;20173;-63
2023/05/15 08:50:14;;;;;;;24.48;20.52;;;;;;;15.14;100.00;98259.88;5052121;28;20173;-62
2023/05/15 08:52:45;;;;;;;23.83;19.58;;;;;;;15.04;100.00;98240.00;5052064;28;20178;-63
2023/05/15 08:55:13;;;;;;;21.27;17.98;;;;;;;15.21;100.00;98257.56;5052035;28;20223;-63
2023/05/15 08:57:39;;;;;;;20.65;16.70;;;;;;;14.95;100.00;98217.34;5052070;28;20175;-63
2023/05/15 09:00:10;;;;;;;19.55;16.35;;;;;;;15.41;100.00;98293.09;5051689;28;20185;-62
2023/05/15 09:02:37;;;;;;;19.38;17.38;;;;;;;15.16;100.00;98257.94;5052070;28;20204;-63
2023/05/15 09:05:04;;;;;;;21.20;16.15;;;;;;;15.33;100.00;98269.53;5052011;28;20725;-63
2023/05/15 09:07:30;;;;;;;19.48;16.77;;;;;;;15.41;100.00;98277.47;5051979;28;20173;-63
2023/05/15 09:09:56;;;;;;;20.85;15.38;;;;;;;15.02;100.00;98221.03;5051939;28;20174;-63
2023/05/15 09:12:24;;;;;;;17.50;15.65;;;;;;;15.20;100.00;98250.66;5051904;28;20181;-63
2023/05/15 09:14:50;;;;;;;19.20;17.17;;;;;;;15.37;100.00;98276.06;5049323;28;20214;-63
2023/05/15 09:17:15;;;;;;;23.20;17.33;;;;;;;15.12;100.00;98232.31;5049562;28;20730;-63
2023/05/15 09:19:42;;;;;;;24.75;18.48;;;;;;;14.92;100.00;98183.75;5049482;28;20192;-63
2023/05/15 09:22:21;;;;;;;23.30;17.80;;;;;;;15.20;100.00;98222.00;5049447;28;20181;-63
2023/05/15 09:24:47;;;;;;;28.50;18.77;;;;;;;14.85;100.00;98186.09;5049534;28;20584;-62
2023/05/15 09:27:13;;;;;;;28.48;20.65;;;;;;;14.93;100.00;98203.66;5049381;28;20272;-63
2023/05/15 09:29:39;;;;;;;23.90;19.60;;;;;;;15.17;100.00;98235.31;5049381;28;20186;-63
2023/05/15 09:32:07;;;;;;;28.90;20.70;;;;;;;14.83;100.00;98184.56;5049368;28;20641;-63
2023/05/15 09:34:35;;;;;;;28.67;21.17;;;;;;;15.04;100.00;98224.34;5049227;28;20213;-62
2023/05/15 09:37:03;;;;;;;25.70;20.95;;;;;;;15.22;100.00;98235.72;5049345;28;20269;-63
2023/05/15 09:39:29;;;;;;;29.00;21.92;;;;;;;15.27;100.00;98263.03;5049297;28;20178;-62
2023/05/15 09:42:09;;;;;;;32.70;21.90;;;;;;;15.23;100.00;98242.59;5049261;28;20182;-63
2023/05/15 09:44:34;;;;;;;33.15;22.10;;;;;;;15.37;100.00;98268.25;5052827;28;20571;-63
2023/05/15 09:47:00;;;;;;;28.50;21.65;;;;;;;15.39;100.00;98248.09;5055025;28;20194;-63
2023/05/15 09:49:30;;;;;;;31.30;22.73;;;;;;;15.38;100.00;98230.78;5055342;28;20173;-62
2023/05/15 09:51:59;;;;;;;32.38;21.55;;;;;;;15.59;100.00;98254.94;5055273;28;20181;-63
2023/05/15 09:54:26;;;;;;;33.05;22.25;;;;;;;15.32;100.00;98197.41;5054853;28;20222;-63
2023/05/15 09:56:52;;;;;;;33.20;23.23;;;;;;;15.53;100.00;98230.25;5055176;28;20178;-62
2023/05/15 09:59:22;;;;;;;27.83;22.23;;;;;;;15.57;100.00;98209.91;5055185;28;20190;-63
2023/05/15 10:01:50;;;;;;;33.03;22.65;;;;;;;15.44;100.00;98147.63;5055084;28;20178;-63
2023/05/15 10:04:16;;;;;;;26.02;19.95;;;;;;;15.86;100.00;98195.81;5032630;28;20569;-62
2023/05/15 10:06:44;;;;;;;32.22;22.45;;;;;;;15.96;100.00;98222.72;5032695;28;20198;-62
2023/05/15 10:09:11;;;;;;;29.73;21.30;;;;;;;15.87;100.00;98196.66;5032674;28;20358;-62
2023/05/15 10:11:39;;;;;;;30.30;21.20;;;;;;;15.62;100.00;98135.50;5032624;28;20181;-63
2023/05/15 10:14:07;;;;;;;28.23;21.35;;;;;;;16.03;100.00;98215.13;5032489;28;20273;-63
2023/05/15 10:16:34;;;;;;;28.55;21.00;;;;;;;16.15;100.00;98206.97;5032509;28;20317;-63
2023/05/15 10:19:04;;;;;;;28.20;21.10;;;;;;;16.37;100.00;98200.53;5032464;28;20191;-62
2023/05/15 10:21:33;;;;;;;28.67;21.58;;;;;;;15.70;100.00;98122.56;5032421;28;20177;-63
2023/05/15 10:23:59;;;;;;;23.45;18.65;;;;;;;16.06;100.00;98160.03;5032361;28;20691;-63
2023/05/15 10:26:46;;;;;;;26.65;20.60;;;;;;;16.44;100.00;98206.88;5032292;28;20722;-63
2023/05/15 10:29:14;;;;;;;24.60;20.10;;;;;;;16.11;100.00;98121.25;5032328;28;20216;-63
2023/05/15 10:31:40;;;;;;;26.95;20.05;;;;;;;16.43;100.00;98168.63;5032202;28;20190;-63
2023/05/15 10:34:07;;;;;;;25.98;20.52;;;;;;;16.28;100.00;98136.13;5032604;28;20286;-63
2023/05/15 10:36:34;;;;;;;29.27;20.98;;;;;;;16.39;100.00;98120.28;5054445;28;20227;-63
2023/05/15 10:39:01;;;;;;;25.00;20.17;;;;;;;16.54;100.00;98122.25;5054307;28;20188;-63
2023/05/15 10:41:32;;;;;;;26.23;21.13;;;;;;;16.78;100.00;98126.84;5054299;28;20182;-63
2023/05/15 10:43:59;;;;;;;23.25;18.20;;;;;;;17.23;100.00;98174.59;5054199;28;20173;-63
2023/05/15 10:46:26;;;;;;;22.23;18.70;;;;;;;17.24;100.00;98155.31;5054263;28;20177;-63
2023/05/15 10:48:52;;;;;;;24.38;20.13;;;;;;;17.52;100.00;98194.31;5054206;28;20169;-63
2023/05/15 10:51:25;;;;;;;23.67;17.90;;;;;;;17.60;100.00;98198.78;5054184;28;20180;-63
2023/05/15 10:53:51;;;;;;;23.60;17.90;;;;;;;17.03;100.00;98118.25;5054058;28;20189;-63
2023/05/15 10:56:16;;;;;;;31.52;20.73;;;;;;;17.16;100.00;98142.19;5054110;28;20181;-63
2023/05/15 10:58:49;;;;;;;26.65;20.92;;;;;;;17.09;100.00;98156.88;5053786;28;20185;-63
2023/05/15 11:01:26;;;;;;;27.05;21.05;;;;;;;16.82;100.00;98144.72;5054264;28;20189;-63
2023/05/15 11:04:04;;;;;;;25.83;21.27;;;;;;;16.82;100.00;98177.84;5053930;28;20177;-63
2023/05/15 11:06:31;;;;;;;28.38;20.08;;;;;;;16.57;100.00;98121.94;5053961;28;20181;-63
2023/05/15 11:09:28;;;;;;;27.75;21.80;;;;;;;16.98;100.00;98168.38;5053816;28;20628;-63
2023/05/15 11:12:04;;;;;;;25.58;20.23;;;;;;;16.54;100.00;98096.13;5053406;28;20548;-63
2023/05/15 11:14:31;;;;;;;25.40;20.88;;;;;;;16.82;100.00;98128.19;5053637;28;20276;-62